Time;durP1;ratioP1;P1;durP2;ratioP2;P2;SDS_P1;SDS_P2;PMS_P1;PMS_P2;Temp;Humidity;BMP_temperature;BMP_pressure;BME280_temperature;BME280_humidity;BME280_pressure;Samples;Min_cycle;Max_cycle;Signal;HPM_P1;HPM_P2
2023/05/14 00:01:15;;;;;;;12.98;9.63;;;;;;;;;;5035865;28;20045;-78
2023/05/14 00:03:42;;;;;;;11.30;7.35;;;;;;;;;;5034145;28;20049;-77
2023/05/14 00:06:09;;;;;;;11.77;7.93;;;;;;;;;;5034520;28;20080;-77
2023/05/14 00:08:36;;;;;;;11.93;8.00;;;;;;;;;;5035092;28;20049;-77
2023/05/14 00:11:03;;;;;;;12.35;9.32;;;;;;;;;;5042778;28;20101;-77
2023/05/14 00:13:29;;;;;;;12.82;8.70;;;;;;;;;;5040712;28;20084;-77
2023/05/14 00:15:56;;;;;;;11.70;8.48;;;;;;;;;;5036913;28;20468;-76
2023/05/14 00:18:24;;;;;;;10.85;8.60;;;;;;;;;;5031892;28;20132;-76
2023/05/14 00:20:53;;;;;;;11.80;8.52;;;;;;;;;;5031825;28;20053;-76
2023/05/14 00:23:20;;;;;;;12.25;8.88;;;;;;;;;;5031900;28;20054;-76
2023/05/14 00:25:46;;;;;;;11.57;7.78;;;;;;;;;;5030593;28;20053;-76
2023/05/14 00:28:13;;;;;;;11.63;7.75;;;;;;;;;;5030659;28;20464;-77
2023/05/14 00:30:40;;;;;;;12.68;8.07;;;;;;;;;;5030371;28;20132;-77
2023/05/14 00:33:07;;;;;;;11.68;8.55;;;;;;;;;;5031072;28;20575;-76
2023/05/14 00:35:35;;;;;;;12.75;8.50;;;;;;;;;;5032753;28;20129;-77
2023/05/14 00:38:01;;;;;;;13.30;9.07;;;;;;;;;;5046960;28;20052;-79
2023/05/14 00:40:29;;;;;;;12.15;9.07;;;;;;;;;;5037938;28;20050;-79
2023/05/14 00:42:56;;;;;;;11.38;8.55;;;;;;;;;;5038139;28;20109;-78
2023/05/14 00:45:23;;;;;;;12.18;8.15;;;;;;;;;;5037259;28;20096;-79
2023/05/14 00:47:50;;;;;;;12.60;9.05;;;;;;;;;;5036885;28;20115;-79
2023/05/14 00:50:17;;;;;;;12.70;8.75;;;;;;;;;;5036201;28;20132;-78
2023/05/14 00:52:46;;;;;;;13.73;8.85;;;;;;;;;;5035702;28;20092;-79
2023/05/14 00:55:16;;;;;;;14.05;8.85;;;;;;;;;;5036101;28;20073;-79
2023/05/14 00:57:43;;;;;;;11.57;8.30;;;;;;;;;;5036952;28;20045;-79
2023/05/14 01:00:10;;;;;;;10.90;7.70;;;;;;;;;;5036193;28;20073;-79
2023/05/14 01:02:37;;;;;;;12.25;8.88;;;;;;;;;;5035460;28;20064;-76
2023/05/14 01:05:04;;;;;;;12.52;8.55;;;;;;;;;;5036023;28;20128;-78
2023/05/14 01:07:42;;;;;;;12.63;8.70;;;;;;;;;;5035611;28;20044;-78
2023/05/14 01:10:15;;;;;;;12.82;8.20;;;;;;;;;;5035224;28;20088;-78
2023/05/14 01:12:47;;;;;;;11.82;8.27;;;;;;;;;;5034352;28;20052;-77
2023/05/14 01:15:19;;;;;;;13.18;8.52;;;;;;;;;;5035303;28;20045;-77
2023/05/14 01:17:48;;;;;;;11.88;8.13;;;;;;;;;;5034547;28;20045;-77
2023/05/14 01:20:16;;;;;;;12.93;8.50;;;;;;;;;;5034123;28;20059;-78
2023/05/14 01:22:44;;;;;;;11.80;8.38;;;;;;;;;;5034863;28;20061;-78
2023/05/14 01:25:11;;;;;;;11.65;8.27;;;;;;;;;;5034598;28;20147;-77
2023/05/14 01:27:42;;;;;;;10.63;8.10;;;;;;;;;;5034567;28;20045;-78
2023/05/14 01:30:19;;;;;;;11.23;8.50;;;;;;;;;;5034815;28;20385;-78
2023/05/14 01:32:50;;;;;;;12.25;8.48;;;;;;;;;;5033812;28;20045;-78
2023/05/14 01:35:18;;;;;;;13.02;8.32;;;;;;;;;;5034337;28;20149;-78
2023/05/14 01:37:48;;;;;;;12.07;8.15;;;;;;;;;;5033710;28;20447;-76
2023/05/14 01:40:15;;;;;;;13.13;8.90;;;;;;;;;;5034146;28;20049;-77
2023/05/14 01:42:42;;;;;;;11.88;8.23;;;;;;;;;;5034721;28;20136;-78
2023/05/14 01:45:10;;;;;;;13.32;9.13;;;;;;;;;;5034269;28;20045;-76
2023/05/14 01:47:37;;;;;;;11.98;9.30;;;;;;;;;;5033934;28;20133;-76
2023/05/14 01:50:03;;;;;;;13.55;9.73;;;;;;;;;;5033961;28;20049;-77
2023/05/14 01:52:30;;;;;;;12.30;8.38;;;;;;;;;;5033845;28;20046;-77
2023/05/14 01:54:58;;;;;;;11.57;8.40;;;;;;;;;;5033656;28;20077;-77
2023/05/14 01:57:25;;;;;;;12.75;8.48;;;;;;;;;;5033441;28;20045;-77
2023/05/14 01:59:52;;;;;;;13.25;9.32;;;;;;;;;;5033816;28;20128;-78
2023/05/14 02:02:18;;;;;;;13.82;9.05;;;;;;;;;;5033541;28;20128;-78
2023/05/14 02:04:45;;;;;;;12.75;9.15;;;;;;;;;;5033426;28;20447;-77
2023/05/14 02:07:12;;;;;;;13.35;9.23;;;;;;;;;;5033578;28;20474;-77
2023/05/14 02:09:38;;;;;;;13.40;8.82;;;;;;;;;;5033836;28;20128;-76
2023/05/14 02:12:08;;;;;;;12.00;8.68;;;;;;;;;;5033271;28;20046;-77
2023/05/14 02:14:34;;;;;;;12.75;8.55;;;;;;;;;;5033650;28;20059;-77
2023/05/14 02:17:02;;;;;;;12.60;8.35;;;;;;;;;;5032654;28;20397;-77
2023/05/14 02:19:29;;;;;;;13.40;8.98;;;;;;;;;;5032754;28;20124;-77
2023/05/14 02:21:55;;;;;;;12.38;8.73;;;;;;;;;;5033247;28;20049;-79
2023/05/14 02:24:22;;;;;;;11.02;7.35;;;;;;;;;;5033810;28;20132;-76
2023/05/14 02:26:49;;;;;;;10.73;7.88;;;;;;;;;;5033873;28;20045;-78
2023/05/14 02:29:17;;;;;;;10.68;7.43;;;;;;;;;;5032318;28;20045;-77
2023/05/14 02:31:43;;;;;;;11.23;8.07;;;;;;;;;;5013785;28;20042;-78
2023/05/14 02:34:10;;;;;;;12.38;8.43;;;;;;;;;;5029780;28;20464;-77
2023/05/14 02:36:37;;;;;;;10.95;7.90;;;;;;;;;;5033217;28;20046;-77
2023/05/14 02:39:03;;;;;;;12.82;8.70;;;;;;;;;;5033123;28;20045;-76
2023/05/14 02:41:30;;;;;;;11.60;7.80;;;;;;;;;;5033137;28;20038;-77
2023/05/14 02:43:56;;;;;;;10.40;8.18;;;;;;;;;;5033350;28;20504;-78
2023/05/14 02:46:24;;;;;;;10.80;8.15;;;;;;;;;;5033824;28;20073;-75
2023/05/14 02:48:51;;;;;;;9.93;7.40;;;;;;;;;;5032739;28;20037;-77
2023/05/14 02:51:19;;;;;;;11.25;7.65;;;;;;;;;;5032548;28;20504;-78
2023/05/14 02:53:46;;;;;;;10.93;7.85;;;;;;;;;;5029569;28;20045;-78
2023/05/14 02:56:13;;;;;;;11.02;7.93;;;;;;;;;;5038634;28;20128;-75
2023/05/14 02:58:39;;;;;;;11.95;7.68;;;;;;;;;;5036433;28;20041;-79
2023/05/14 03:01:06;;;;;;;10.50;7.57;;;;;;;;;;5035255;28;20045;-78
2023/05/14 03:03:35;;;;;;;11.98;8.07;;;;;;;;;;5034604;28;20046;-77
2023/05/14 03:06:02;;;;;;;12.40;8.13;;;;;;;;;;5034924;28;20563;-77
2023/05/14 03:08:29;;;;;;;11.65;8.52;;;;;;;;;;5034287;28;20053;-78
2023/05/14 03:10:55;;;;;;;11.82;8.13;;;;;;;;;;5033778;28;20045;-78
2023/05/14 03:13:22;;;;;;;12.80;7.78;;;;;;;;;;5033372;28;20152;-79
2023/05/14 03:15:53;;;;;;;11.52;7.95;;;;;;;;;;5033344;28;20136;-78
2023/05/14 03:18:20;;;;;;;11.18;8.35;;;;;;;;;;5031970;28;20045;-77
2023/05/14 03:20:48;;;;;;;11.52;8.00;;;;;;;;;;5031293;28;20049;-75
2023/05/14 03:23:15;;;;;;;11.77;8.20;;;;;;;;;;5031847;28;20052;-77
2023/05/14 03:25:42;;;;;;;11.10;7.72;;;;;;;;;;5031610;28;20136;-77
2023/05/14 03:28:08;;;;;;;12.13;8.35;;;;;;;;;;5031459;28;20132;-77
2023/05/14 03:30:35;;;;;;;11.93;8.05;;;;;;;;;;5031989;28;20056;-77
2023/05/14 03:33:02;;;;;;;15.32;9.43;;;;;;;;;;5031146;28;20157;-77
2023/05/14 03:35:28;;;;;;;13.88;9.85;;;;;;;;;;5031666;28;20049;-77
2023/05/14 03:37:58;;;;;;;14.00;8.57;;;;;;;;;;5032028;28;20520;-75
2023/05/14 03:40:24;;;;;;;13.75;9.10;;;;;;;;;;5030317;28;20049;-75
2023/05/14 03:42:51;;;;;;;14.00;9.27;;;;;;;;;;5030355;28;20111;-76
2023/05/14 03:45:17;;;;;;;14.55;8.93;;;;;;;;;;5030626;28;20144;-75
2023/05/14 03:47:44;;;;;;;14.20;9.20;;;;;;;;;;5030384;28;20056;-75
2023/05/14 03:50:11;;;;;;;14.13;8.90;;;;;;;;;;5029672;28;20960;-76
2023/05/14 03:52:37;;;;;;;13.95;9.32;;;;;;;;;;5025009;28;20456;-77
2023/05/14 03:55:07;;;;;;;13.38;9.20;;;;;;;;;;5031706;28;20112;-77
2023/05/14 03:57:33;;;;;;;15.02;10.13;;;;;;;;;;5013964;28;20081;-76
2023/05/14 04:02:27;;;;;;;16.80;10.27;;;;;;;;;;5027636;28;20049;-69
2023/05/14 04:04:54;;;;;;;14.88;9.60;;;;;;;;;;5029670;28;20053;-69
2023/05/14 04:07:21;;;;;;;15.40;9.68;;;;;;;;;;5029636;28;20119;-69
2023/05/14 04:09:47;;;;;;;15.43;10.07;;;;;;;;;;5031205;28;20053;-69
2023/05/14 04:12:16;;;;;;;15.00;9.63;;;;;;;;;;5053169;28;20613;-69
2023/05/14 04:14:42;;;;;;;17.77;10.98;;;;;;;;;;5052785;28;20064;-67
2023/05/14 04:17:09;;;;;;;16.30;10.80;;;;;;;;;;5052988;28;20502;-69
2023/05/14 04:19:36;;;;;;;15.25;9.90;;;;;;;;;;5052795;28;20083;-69
2023/05/14 04:22:04;;;;;;;16.58;10.50;;;;;;;;;;5052574;28;20049;-69
2023/05/14 04:24:30;;;;;;;14.32;9.45;;;;;;;;;;5052561;28;20144;-69
2023/05/14 04:26:57;;;;;;;16.55;11.13;;;;;;;;;;5052858;28;20456;-69
2023/05/14 04:29:26;;;;;;;15.02;10.07;;;;;;;;;;5052926;28;20071;-69
2023/05/14 04:31:53;;;;;;;16.60;10.70;;;;;;;;;;5052684;28;20092;-70
2023/05/14 04:34:20;;;;;;;14.73;10.63;;;;;;;;;;5052762;28;20453;-68
2023/05/14 04:36:46;;;;;;;17.10;11.27;;;;;;;;;;5052597;28;20573;-68
2023/05/14 04:39:13;;;;;;;15.88;10.52;;;;;;;;;;5052641;28;20112;-68
2023/05/14 04:41:41;;;;;;;16.23;9.50;;;;;;;;;;5052522;28;20053;-69
2023/05/14 04:44:08;;;;;;;15.82;10.35;;;;;;;;;;5052508;28;20088;-67
2023/05/14 04:46:36;;;;;;;18.60;12.15;;;;;;;;;;5052328;28;20060;-68
2023/05/14 04:49:03;;;;;;;17.08;10.65;;;;;;;;;;5052240;28;20126;-68
2023/05/14 04:51:30;;;;;;;17.13;10.57;;;;;;;;;;5052232;28;20099;-68
2023/05/14 04:53:57;;;;;;;20.38;12.25;;;;;;;;;;5052525;28;20057;-69
2023/05/14 04:56:25;;;;;;;15.90;10.20;;;;;;;;;;5052340;28;20053;-69
2023/05/14 04:58:52;;;;;;;17.23;10.05;;;;;;;;;;5052237;28;20064;-68
2023/05/14 05:01:19;;;;;;;17.20;9.98;;;;;;;;;;5051972;28;20490;-69
2023/05/14 05:03:47;;;;;;;18.52;10.80;;;;;;;;;;5052413;28;20458;-69
2023/05/14 05:06:14;;;;;;;15.45;9.90;;;;;;;;;;5052488;28;20057;-70
2023/05/14 05:08:41;;;;;;;15.77;9.82;;;;;;;;;;5052070;28;20056;-69
2023/05/14 05:11:07;;;;;;;16.98;10.65;;;;;;;;;;5051935;28;20560;-70
2023/05/14 05:13:34;;;;;;;15.93;11.10;;;;;;;;;;5051989;28;20461;-70
2023/05/14 05:16:02;;;;;;;14.80;9.73;;;;;;;;;;5051865;28;20049;-69
2023/05/14 05:18:28;;;;;;;15.65;10.60;;;;;;;;;;5052073;28;20053;-70
2023/05/14 05:20:57;;;;;;;17.63;10.43;;;;;;;;;;5051563;28;20048;-70
2023/05/14 05:23:23;;;;;;;17.38;11.00;;;;;;;;;;5051895;28;20106;-69
2023/05/14 05:25:50;;;;;;;15.55;10.40;;;;;;;;;;5052039;28;20049;-69
2023/05/14 05:28:17;;;;;;;16.35;10.20;;;;;;;;;;5051670;28;20148;-69
2023/05/14 05:30:44;;;;;;;16.02;10.23;;;;;;;;;;5051419;28;20084;-69
2023/05/14 05:33:11;;;;;;;17.38;10.95;;;;;;;;;;5051616;28;20053;-69
2023/05/14 05:35:38;;;;;;;15.02;10.07;;;;;;;;;;5051744;28;20110;-68
2023/05/14 05:38:06;;;;;;;14.50;9.90;;;;;;;;;;5051880;28;20045;-69
2023/05/14 05:40:33;;;;;;;17.35;10.38;;;;;;;;;;5051998;28;20053;-70
2023/05/14 05:43:00;;;;;;;16.58;9.98;;;;;;;;;;5051653;28;20041;-68
2023/05/14 05:45:27;;;;;;;15.68;10.23;;;;;;;;;;5051579;28;20044;-68
2023/05/14 05:47:54;;;;;;;17.48;9.65;;;;;;;;;;5051882;28;20728;-68
2023/05/14 05:50:21;;;;;;;15.20;10.50;;;;;;;;;;5051579;28;20114;-69
2023/05/14 05:52:48;;;;;;;16.58;10.23;;;;;;;;;;5052289;28;20472;-68
2023/05/14 05:55:16;;;;;;;17.35;10.77;;;;;;;;;;5051481;28;20044;-69
2023/05/14 05:57:43;;;;;;;18.02;11.05;;;;;;;;;;5051293;28;20052;-69
2023/05/14 06:00:14;;;;;;;14.82;10.05;;;;;;;;;;5051085;28;20094;-69
2023/05/14 06:02:41;;;;;;;15.63;10.40;;;;;;;;;;5051160;28;20053;-69
2023/05/14 06:05:09;;;;;;;16.13;10.23;;;;;;;;;;5051015;28;20057;-69
2023/05/14 06:07:36;;;;;;;16.67;9.48;;;;;;;;;;5051166;28;20045;-69
2023/05/14 06:10:05;;;;;;;18.20;11.07;;;;;;;;;;5051064;28;20072;-70
2023/05/14 06:12:34;;;;;;;14.98;10.00;;;;;;;;;;5051530;28;20528;-68
2023/05/14 06:15:01;;;;;;;16.52;9.75;;;;;;;;;;5051455;28;20416;-69
2023/05/14 06:17:28;;;;;;;15.75;9.93;;;;;;;;;;5051057;28;20072;-70
2023/05/14 06:19:55;;;;;;;15.00;9.57;;;;;;;;;;5050451;28;20552;-69
2023/05/14 06:22:22;;;;;;;13.55;9.32;;;;;;;;;;5050741;28;20053;-69
2023/05/14 06:24:49;;;;;;;15.07;9.73;;;;;;;;;;5050979;28;20486;-69
2023/05/14 06:27:15;;;;;;;16.42;9.63;;;;;;;;;;5050899;28;20049;-68
2023/05/14 06:29:43;;;;;;;14.95;9.63;;;;;;;;;;5051105;28;20111;-68
2023/05/14 06:32:14;;;;;;;15.75;10.10;;;;;;;;;;5050186;28;20053;-68
2023/05/14 06:34:40;;;;;;;14.73;9.52;;;;;;;;;;5050924;28;20087;-68
2023/05/14 06:37:08;;;;;;;17.95;10.82;;;;;;;;;;5050648;28;20048;-69
2023/05/14 06:39:35;;;;;;;17.20;10.20;;;;;;;;;;5051110;28;20147;-69
2023/05/14 06:42:02;;;;;;;16.90;10.85;;;;;;;;;;5050255;28;20099;-69
2023/05/14 06:44:28;;;;;;;16.50;10.77;;;;;;;;;;5050677;28;20494;-69
2023/05/14 06:46:57;;;;;;;16.27;9.73;;;;;;;;;;5050910;28;20079;-68
2023/05/14 06:49:24;;;;;;;15.73;9.93;;;;;;;;;;5050480;28;20052;-70
2023/05/14 06:51:51;;;;;;;14.90;10.23;;;;;;;;;;5050404;28;20041;-68
2023/05/14 06:54:19;;;;;;;15.20;10.18;;;;;;;;;;5050279;28;20047;-69
2023/05/14 06:56:46;;;;;;;13.68;9.20;;;;;;;;;;5050839;28;20501;-68
2023/05/14 06:59:12;;;;;;;17.17;11.93;;;;;;;;;;5050280;28;20337;-68
2023/05/14 07:01:39;;;;;;;14.20;9.18;;;;;;;;;;5049832;28;20051;-69
2023/05/14 07:04:07;;;;;;;16.65;10.15;;;;;;;;;;5050226;28;20106;-69
2023/05/14 07:06:34;;;;;;;15.10;9.23;;;;;;;;;;5050222;28;20135;-70
2023/05/14 07:09:02;;;;;;;15.40;9.63;;;;;;;;;;5050552;28;20041;-67
2023/05/14 07:11:29;;;;;;;13.60;9.13;;;;;;;;;;5050068;28;20579;-69
2023/05/14 07:13:55;;;;;;;17.90;10.65;;;;;;;;;;5050140;28;20053;-68
2023/05/14 07:16:22;;;;;;;16.95;10.13;;;;;;;;;;5050195;28;20060;-68
2023/05/14 07:18:49;;;;;;;15.13;9.35;;;;;;;;;;5050290;28;20052;-69
2023/05/14 07:21:18;;;;;;;15.38;9.35;;;;;;;;;;5049906;28;20466;-67
2023/05/14 07:23:44;;;;;;;15.80;9.88;;;;;;;;;;5050268;28;20433;-68
2023/05/14 07:26:11;;;;;;;14.93;9.85;;;;;;;;;;5049977;28;20123;-69
2023/05/14 07:28:38;;;;;;;15.70;9.90;;;;;;;;;;5050136;28;20053;-68
2023/05/14 07:31:07;;;;;;;18.17;10.75;;;;;;;;;;5049725;28;20049;-70
2023/05/14 07:33:34;;;;;;;15.25;9.57;;;;;;;;;;5050326;28;20418;-69
2023/05/14 07:36:01;;;;;;;17.00;10.10;;;;;;;;;;5050240;28;20049;-69
2023/05/14 07:38:29;;;;;;;17.15;10.43;;;;;;;;;;5050200;28;20107;-69
2023/05/14 07:40:56;;;;;;;14.73;10.15;;;;;;;;;;5050304;28;20057;-67
2023/05/14 07:43:23;;;;;;;14.98;9.73;;;;;;;;;;5050336;28;20053;-69
2023/05/14 07:45:50;;;;;;;17.88;10.00;;;;;;;;;;5054018;28;20048;-69
2023/05/14 07:48:16;;;;;;;18.20;11.02;;;;;;;;;;5054448;28;20049;-68
2023/05/14 07:50:44;;;;;;;17.25;10.52;;;;;;;;;;5054503;28;20465;-68
2023/05/14 07:53:11;;;;;;;17.42;11.02;;;;;;;;;;5054365;28;20569;-68
2023/05/14 07:55:39;;;;;;;14.48;9.48;;;;;;;;;;5054015;28;20072;-68
2023/05/14 07:58:06;;;;;;;18.85;11.00;;;;;;;;;;5053796;28;20049;-71
2023/05/14 08:00:33;;;;;;;15.48;10.52;;;;;;;;;;5053542;28;20045;-69
2023/05/14 08:03:00;;;;;;;16.73;9.45;;;;;;;;;;5054078;28;20095;-72
2023/05/14 08:05:27;;;;;;;14.80;10.10;;;;;;;;;;5053824;28;20053;-69
2023/05/14 08:07:54;;;;;;;16.88;11.75;;;;;;;;;;5053347;28;20053;-69
2023/05/14 08:10:20;;;;;;;15.88;10.68;;;;;;;;;;5053618;28;20139;-67
2023/05/14 08:12:49;;;;;;;15.45;9.35;;;;;;;;;;5052704;28;20071;-67
2023/05/14 08:15:16;;;;;;;18.02;10.20;;;;;;;;;;5053292;28;20461;-69
2023/05/14 08:17:43;;;;;;;14.48;8.43;;;;;;;;;;5053419;28;20051;-69
2023/05/14 08:20:11;;;;;;;13.13;8.57;;;;;;;;;;5053189;28;20068;-69
2023/05/14 08:22:38;;;;;;;13.43;8.80;;;;;;;;;;5052677;28;20059;-68
2023/05/14 08:25:06;;;;;;;14.13;8.95;;;;;;;;;;5053185;28;20553;-68
2023/05/14 08:27:33;;;;;;;13.88;8.52;;;;;;;;;;5053222;28;20464;-68
2023/05/14 08:30:01;;;;;;;15.30;8.65;;;;;;;;;;5053155;28;20057;-68
2023/05/14 08:32:28;;;;;;;11.77;7.88;;;;;;;;;;5052845;28;20585;-67
2023/05/14 08:34:55;;;;;;;13.07;8.48;;;;;;;;;;5053116;28;20049;-69
2023/05/14 08:37:22;;;;;;;14.60;8.98;;;;;;;;;;5052713;28;20041;-68
2023/05/14 08:39:49;;;;;;;11.15;8.00;;;;;;;;;;5052045;28;20478;-68
2023/05/14 08:42:20;;;;;;;13.25;9.07;;;;;;;;;;5052995;28;20095;-68
2023/05/14 08:44:50;;;;;;;13.20;8.65;;;;;;;;;;5052434;28;20068;-68
2023/05/14 08:47:21;;;;;;;13.40;8.38;;;;;;;;;;5053010;28;20745;-69
2023/05/14 08:49:53;;;;;;;12.40;8.35;;;;;;;;;;5052445;28;20049;-69
2023/05/14 08:52:22;;;;;;;12.38;9.00;;;;;;;;;;5033573;28;20067;-68
2023/05/14 08:54:51;;;;;;;13.25;8.95;;;;;;;;;;5052608;28;20138;-68
2023/05/14 08:57:23;;;;;;;13.80;8.77;;;;;;;;;;5052509;28;20103;-68
2023/05/14 08:59:53;;;;;;;13.23;8.85;;;;;;;;;;5053259;28;20067;-70
2023/05/14 09:02:26;;;;;;;11.77;7.85;;;;;;;;;;5048329;28;20481;-68
2023/05/14 09:04:56;;;;;;;12.52;8.05;;;;;;;;;;5052005;28;20049;-69
2023/05/14 09:07:23;;;;;;;12.52;8.25;;;;;;;;;;5052405;28;20045;-67
2023/05/14 09:09:51;;;;;;;11.88;7.93;;;;;;;;;;5051754;28;20055;-68
2023/05/14 09:12:18;;;;;;;13.57;8.02;;;;;;;;;;5047265;28;20048;-69
2023/05/14 09:14:45;;;;;;;12.13;8.23;;;;;;;;;;5032472;28;20714;-69
2023/05/14 09:17:12;;;;;;;12.70;8.15;;;;;;;;;;5044433;28;20475;-68
2023/05/14 09:19:41;;;;;;;14.93;8.60;;;;;;;;;;5052363;28;20053;-66
2023/05/14 09:22:09;;;;;;;12.90;8.45;;;;;;;;;;5051305;28;20049;-68
2023/05/14 09:24:37;;;;;;;13.80;8.98;;;;;;;;;;5052152;28;20055;-68
2023/05/14 09:27:05;;;;;;;12.15;7.78;;;;;;;;;;5051594;28;20064;-68
2023/05/14 09:29:32;;;;;;;14.23;8.68;;;;;;;;;;5051658;28;20461;-68
2023/05/14 09:32:03;;;;;;;11.10;7.85;;;;;;;;;;5051490;28;20060;-68
2023/05/14 09:34:31;;;;;;;10.63;7.32;;;;;;;;;;5052029;28;20177;-67
2023/05/14 09:37:01;;;;;;;11.30;7.68;;;;;;;;;;5052126;28;20049;-70
2023/05/14 09:39:29;;;;;;;13.00;9.18;;;;;;;;;;5052412;28;20080;-68
2023/05/14 09:41:56;;;;;;;12.60;8.88;;;;;;;;;;5051831;28;20049;-69
2023/05/14 09:44:23;;;;;;;13.57;8.38;;;;;;;;;;5052050;28;20119;-68
2023/05/14 09:46:51;;;;;;;12.30;8.00;;;;;;;;;;5051849;28;20041;-68
2023/05/14 09:49:18;;;;;;;11.55;8.50;;;;;;;;;;5051775;28;20045;-69
2023/05/14 09:51:51;;;;;;;12.65;8.73;;;;;;;;;;5052163;28;20040;-70
2023/05/14 09:54:21;;;;;;;12.45;9.35;;;;;;;;;;5040987;28;20060;-69
2023/05/14 09:56:48;;;;;;;14.05;10.13;;;;;;;;;;5052241;28;20501;-70
2023/05/14 09:59:21;;;;;;;13.57;10.35;;;;;;;;;;5051542;28;20056;-69
2023/05/14 10:01:49;;;;;;;13.30;9.48;;;;;;;;;;5049965;28;20049;-68
2023/05/14 10:04:17;;;;;;;12.30;8.90;;;;;;;;;;5031878;28;20099;-70
2023/05/14 10:06:47;;;;;;;12.60;9.05;;;;;;;;;;5032220;28;20045;-70
2023/05/14 10:09:18;;;;;;;12.60;9.02;;;;;;;;;;5048125;28;20528;-69
2023/05/14 10:11:52;;;;;;;12.13;8.40;;;;;;;;;;5050695;28;20502;-70
2023/05/14 10:14:24;;;;;;;11.85;8.90;;;;;;;;;;5051392;28;20060;-70
2023/05/14 10:16:53;;;;;;;9.40;6.78;;;;;;;;;;5051499;28;20049;-69
2023/05/14 10:19:23;;;;;;;10.55;7.35;;;;;;;;;;5083802;22;20043;-78
2023/05/14 10:21:55;;;;;;;12.05;9.35;;;;;;;;;;5092141;28;20050;-76
2023/05/14 10:24:22;;;;;;;13.85;9.90;;;;;;;;;;5091821;28;20417;-79
2023/05/14 10:26:50;;;;;;;11.60;8.43;;;;;;;;;;5093097;28;20131;-79
2023/05/14 10:29:17;;;;;;;12.00;7.95;;;;;;;;;;5094023;28;20117;-78
2023/05/14 10:31:49;;;;;;;10.68;7.30;;;;;;;;;;5093943;28;20047;-79
2023/05/14 10:34:32;;;;;;;10.07;7.22;;;;;;;;;;5088576;28;20490;-79
2023/05/14 10:36:59;;;;;;;9.38;7.00;;;;;;;;;;5096083;28;20044;-79
2023/05/14 10:39:40;;;;;;;8.93;5.75;;;;;;;;;;5095419;28;20036;-81
2023/05/14 10:42:10;;;;;;;9.70;7.00;;;;;;;;;;5094915;28;20123;-80
2023/05/14 10:44:45;;;;;;;10.43;7.30;;;;;;;;;;5094464;28;20048;-79
2023/05/14 10:47:12;;;;;;;11.52;7.53;;;;;;;;;;5097180;28;20050;-83
2023/05/14 10:49:39;;;;;;;17.67;10.35;;;;;;;;;;5096623;28;20052;-80
2023/05/14 10:52:08;;;;;;;23.45;13.40;;;;;;;;;;5092117;28;20123;-84
2023/05/14 10:54:35;;;;;;;90.05;38.40;;;;;;;;;;5091946;28;20044;-82
2023/05/14 10:57:03;;;;;;;79.93;32.92;;;;;;;;;;5092865;28;20097;-81
2023/05/14 10:59:34;;;;;;;16.23;10.07;;;;;;;;;;5086383;28;20059;-81
2023/05/14 11:02:00;;;;;;;;;;;;;;;;;;5094642;28;20051;-82
2023/05/14 11:04:28;;;;;;;10.10;6.70;;;;;;;;;;5095344;28;20018;-82
2023/05/14 11:06:56;;;;;;;12.95;7.80;;;;;;;;;;5096580;28;20083;-80
2023/05/14 11:09:25;;;;;;;8.70;5.90;;;;;;;;;;5078768;28;20075;-81
2023/05/14 11:11:51;;;;;;;10.98;7.47;;;;;;;;;;5095535;28;20123;-79
2023/05/14 11:14:19;;;;;;;11.18;7.38;;;;;;;;;;5095105;28;20060;-79
2023/05/14 11:16:47;;;;;;;13.18;7.53;;;;;;;;;;5095259;28;20044;-81
2023/05/14 11:19:16;;;;;;;10.73;7.00;;;;;;;;;;5093896;28;20101;-80
2023/05/14 11:21:43;;;;;;;9.20;6.65;;;;;;;;;;5094915;28;20040;-80
2023/05/14 11:24:10;;;;;;;10.02;6.88;;;;;;;;;;5095296;28;20046;-81
2023/05/14 11:26:36;;;;;;;8.27;6.22;;;;;;;;;;5095787;28;20147;-80
2023/05/14 11:29:05;;;;;;;11.00;7.50;;;;;;;;;;5100498;28;20032;-80
2023/05/14 11:31:31;;;;;;;11.43;6.45;;;;;;;;;;5097065;28;20391;-82
2023/05/14 11:34:02;;;;;;;11.48;7.70;;;;;;;;;;5094596;28;20067;-81
2023/05/14 11:36:30;;;;;;;8.73;6.55;;;;;;;;;;5100350;28;20473;-80
2023/05/14 11:38:56;;;;;;;9.57;7.15;;;;;;;;;;5098774;28;20079;-81
2023/05/14 11:41:23;;;;;;;10.55;7.70;;;;;;;;;;5096230;28;20120;-80
2023/05/14 11:43:50;;;;;;;8.95;6.85;;;;;;;;;;5095601;28;20066;-80
2023/05/14 11:46:18;;;;;;;9.65;7.15;;;;;;;;;;5076972;28;20519;-81
2023/05/14 11:48:44;;;;;;;11.35;7.43;;;;;;;;;;5074803;28;20447;-81
2023/05/14 11:51:12;;;;;;;9.07;6.80;;;;;;;;;;5084524;28;20044;-81
2023/05/14 11:53:39;;;;;;;9.40;6.90;;;;;;;;;;5094896;28;20131;-80
2023/05/14 11:56:06;;;;;;;9.10;6.70;;;;;;;;;;5094569;28;20075;-79
2023/05/14 11:58:33;;;;;;;11.35;8.23;;;;;;;;;;5075766;28;20526;-81
2023/05/14 12:01:00;;;;;;;10.73;7.47;;;;;;;;;;5075582;28;20045;-80
2023/05/14 12:03:28;;;;;;;12.75;8.93;;;;;;;;;;5081542;28;20478;-81
2023/05/14 12:05:56;;;;;;;11.43;7.95;;;;;;;;;;5082191;28;20486;-81
2023/05/14 12:08:26;;;;;;;11.80;8.05;;;;;;;;;;5079890;28;20044;-79
2023/05/14 12:10:53;;;;;;;9.37;6.70;;;;;;;;;;5094069;28;20043;-80
2023/05/14 12:13:19;;;;;;;10.20;7.25;;;;;;;;;;5093827;28;20040;-79
2023/05/14 12:15:47;;;;;;;10.20;7.95;;;;;;;;;;5092834;28;20048;-81
2023/05/14 12:18:16;;;;;;;11.25;7.25;;;;;;;;;;5092926;28;20136;-84
2023/05/14 12:20:47;;;;;;;10.07;7.63;;;;;;;;;;5093423;28;20127;-78
2023/05/14 12:23:13;;;;;;;;;;;;;;;;;;5093931;28;20276;-79
2023/05/14 12:25:49;;;;;;;10.10;6.95;;;;;;;;;;5093449;28;19927;-79
2023/05/14 12:28:17;;;;;;;10.13;6.85;;;;;;;;;;5091180;28;20127;-78
2023/05/14 12:30:43;;;;;;;11.95;8.20;;;;;;;;;;5084464;28;20564;-79
2023/05/14 12:33:10;;;;;;;14.70;9.23;;;;;;;;;;5094682;28;20080;-78
2023/05/14 12:35:37;;;;;;;12.45;8.45;;;;;;;;;;5094010;28;20614;-79
2023/05/14 12:38:03;;;;;;;10.68;8.02;;;;;;;;;;5095603;28;20072;-78
2023/05/14 12:40:30;;;;;;;11.30;7.63;;;;;;;;;;5095786;28;20506;-79
2023/05/14 12:42:58;;;;;;;10.75;7.32;;;;;;;;;;5095499;28;20122;-78
2023/05/14 12:45:24;;;;;;;10.85;6.68;;;;;;;;;;5094733;28;22322;-79
2023/05/14 12:47:51;;;;;;;8.60;5.88;;;;;;;;;;5096126;28;20086;-79
2023/05/14 12:50:18;;;;;;;9.02;6.90;;;;;;;;;;5094826;28;20081;-79
2023/05/14 12:52:45;;;;;;;12.45;7.28;;;;;;;;;;5095022;28;20073;-80
2023/05/14 12:55:11;;;;;;;10.70;8.18;;;;;;;;;;5095510;28;20059;-79
2023/05/14 12:57:39;;;;;;;9.77;7.30;;;;;;;;;;5095877;28;20132;-78
2023/05/14 13:00:09;;;;;;;7.85;6.25;;;;;;;;;;5096968;28;20134;-80
2023/05/14 13:02:35;;;;;;;;;;;;;;;;;;5088418;28;20055;-79
2023/05/14 13:05:02;;;;;;;7.53;5.65;;;;;;;;;;5090643;28;19926;-79
2023/05/14 13:07:30;;;;;;;7.78;5.15;;;;;;;;;;5097145;28;20056;-80
2023/05/14 13:09:57;;;;;;;8.48;6.78;;;;;;;;;;5095879;28;20075;-78
2023/05/14 13:12:24;;;;;;;9.13;6.50;;;;;;;;;;5094979;28;20046;-78
2023/05/14 13:14:50;;;;;;;7.63;5.70;;;;;;;;;;5094619;28;20101;-77
2023/05/14 13:17:18;;;;;;;7.35;5.65;;;;;;;;;;5095037;28;20070;-78
2023/05/14 13:19:45;;;;;;;8.73;6.13;;;;;;;;;;5094244;28;20173;-78
2023/05/14 13:22:13;;;;;;;7.57;5.35;;;;;;;;;;5095537;28;20050;-82
2023/05/14 13:24:40;;;;;;;7.70;5.70;;;;;;;;;;5097523;28;20041;-83
2023/05/14 13:27:06;;;;;;;6.93;5.00;;;;;;;;;;5099950;28;20112;-82
2023/05/14 13:29:33;;;;;;;6.20;4.40;;;;;;;;;;5087011;28;20060;-78
2023/05/14 13:32:00;;;;;;;6.82;4.28;;;;;;;;;;5082482;28;20070;-78
2023/05/14 13:34:28;;;;;;;5.65;4.13;;;;;;;;;;5096558;28;20048;-78
2023/05/14 13:36:55;;;;;;;7.35;4.80;;;;;;;;;;5096297;28;20047;-79
2023/05/14 13:39:26;;;;;;;6.75;4.68;;;;;;;;;;5097408;28;20505;-80
2023/05/14 13:41:54;;;;;;;8.63;5.13;;;;;;;;;;5099834;28;20147;-81
2023/05/14 13:44:21;;;;;;;6.78;5.25;;;;;;;;;;5099278;28;20067;-81
2023/05/14 13:46:47;;;;;;;7.07;4.90;;;;;;;;;;5097265;28;20098;-80
2023/05/14 13:49:14;;;;;;;6.70;5.45;;;;;;;;;;5097545;28;20043;-80
2023/05/14 13:51:42;;;;;;;5.68;4.07;;;;;;;;;;5104363;28;20028;-81
2023/05/14 13:54:09;;;;;;;7.07;3.72;;;;;;;;;;5113173;28;20024;-80
2023/05/14 13:56:36;;;;;;;5.75;4.18;;;;;;;;;;5106841;28;20083;-81
2023/05/14 13:59:03;;;;;;;5.45;4.07;;;;;;;;;;5099401;28;20071;-85
2023/05/14 14:01:30;;;;;;;5.63;3.72;;;;;;;;;;5088604;28;20060;-90
2023/05/14 14:03:57;;;;;;;5.65;3.45;;;;;;;;;;5091326;28;20040;-82
2023/05/14 14:06:26;;;;;;;4.80;3.47;;;;;;;;;;5097024;28;20104;-82
2023/05/14 14:08:54;;;;;;;5.57;4.13;;;;;;;;;;5096198;28;20052;-79
2023/05/14 14:11:20;;;;;;;5.95;4.03;;;;;;;;;;5082425;28;20045;-77
2023/05/14 14:13:47;;;;;;;4.85;3.83;;;;;;;;;;5087454;28;20135;-77
2023/05/14 14:16:14;;;;;;;5.10;3.97;;;;;;;;;;5094556;28;20047;-78
2023/05/14 14:18:41;;;;;;;7.53;4.28;;;;;;;;;;5095861;28;20082;-80
2023/05/14 14:21:08;;;;;;;5.97;3.83;;;;;;;;;;5095186;28;20044;-78
2023/05/14 14:23:35;;;;;;;5.68;4.18;;;;;;;;;;5098088;28;20044;-80
2023/05/14 14:26:03;;;;;;;5.78;3.97;;;;;;;;;;5096441;28;20072;-80
2023/05/14 14:28:30;;;;;;;5.05;3.08;;;;;;;;;;5096071;28;20048;-79
2023/05/14 14:30:57;;;;;;;4.50;3.38;;;;;;;;;;5096926;28;20079;-79
2023/05/14 14:33:23;;;;;;;5.68;3.20;;;;;;;;;;5096746;28;20036;-76
2023/05/14 14:35:50;;;;;;;5.53;3.70;;;;;;;;;;5094626;28;20128;-80